RYR1776 LPPR-LEPA
Flight info
| Callsign | RYR1776 |
|---|---|
| Flight time | 1h 27m |
| Altitude | 31000 |
| Route | PESUL DCT RIVRO DCT BARDI/N0450F320 M191 DIPOL/N0451F360 M871 NVS/N0450F350 DCT NANDO DCT MINGU DCT ABOSI DCT MABUX DCT RETBA DCT MOPIR DCT LASPO/N0424F260 M871 GODOX |
| Aircraft | B38M/M-SDE1FGHILORVWXY/HB1 |
Departure
| Time | 2026-05-05 17:58 |
|---|---|
| Airport | Francisco de Sá Carneiro Airport (LPPR) |
Arrival
| Time | 2026-05-05 19:25 |
|---|---|
| Airport | Palma de Mallorca Airport (LEPA) |
| Time | Latitude | Longitude | Altitude | Speed | Heading |
|---|---|---|---|---|---|
| 2026-05-05 17:30 | 41.23923 | -8.67323 | 247 ft | 0 kts | 123° |
| 2026-05-05 17:43 | 41.23925 | -8.67325 | 247 ft | 3 kts | 123° |
| 2026-05-05 17:43 | 41.23936 | -8.67347 | 247 ft | 3 kts | 126° |
| 2026-05-05 17:43 | 41.23948 | -8.67369 | 246 ft | 3 kts | 127° |
| 2026-05-05 17:43 | 41.23960 | -8.67391 | 245 ft | 3 kts | 123° |
| 2026-05-05 17:44 | 41.23970 | -8.67414 | 244 ft | 3 kts | 106° |
| 2026-05-05 17:44 | 41.23971 | -8.67433 | 244 ft | 3 kts | 53° |
| 2026-05-05 17:44 | 41.23968 | -8.67438 | 243 ft | 1 kts | 34° |
| 2026-05-05 17:48 | 41.23972 | -8.67434 | 243 ft | 4 kts | 34° |
| 2026-05-05 17:48 | 41.24011 | -8.67419 | 244 ft | 7 kts | 4° |
| 2026-05-05 17:48 | 41.24064 | -8.67427 | 244 ft | 8 kts | 350° |
| 2026-05-05 17:48 | 41.24112 | -8.67448 | 244 ft | 0 kts | 335° |
| 2026-05-05 17:51 | 41.24115 | -8.67450 | 244 ft | 2 kts | 335° |
| 2026-05-05 17:51 | 41.24120 | -8.67453 | 244 ft | 3 kts | 335° |
| 2026-05-05 17:52 | 41.24202 | -8.67532 | 242 ft | 4 kts | 298° |
| 2026-05-05 17:52 | 41.24190 | -8.67565 | 240 ft | 4 kts | 198° |
| 2026-05-05 17:52 | 41.24150 | -8.67561 | 240 ft | 7 kts | 171° |
| 2026-05-05 17:53 | 41.24092 | -8.67547 | 240 ft | 10 kts | 169° |
| 2026-05-05 17:53 | 41.24015 | -8.67528 | 240 ft | 13 kts | 169° |
| 2026-05-05 17:53 | 41.23917 | -8.67500 | 240 ft | 15 kts | 167° |
| 2026-05-05 17:53 | 41.23812 | -8.67472 | 241 ft | 16 kts | 169° |
| 2026-05-05 17:54 | 41.23697 | -8.67444 | 240 ft | 18 kts | 169° |
| 2026-05-05 17:54 | 41.23569 | -8.67411 | 241 ft | 19 kts | 166° |
| 2026-05-05 17:54 | 41.23437 | -8.67374 | 242 ft | 20 kts | 168° |
| 2026-05-05 17:54 | 41.23342 | -8.67393 | 239 ft | 13 kts | 239° |
| 2026-05-05 17:55 | 41.23320 | -8.67513 | 238 ft | 14 kts | 258° |
| 2026-05-05 17:55 | 41.23315 | -8.67549 | 238 ft | 0 kts | 259° |
| 2026-05-05 17:55 | 41.23314 | -8.67551 | 238 ft | 1 kts | 259° |
| 2026-05-05 17:55 | 41.23311 | -8.67572 | 238 ft | 3 kts | 259° |
| 2026-05-05 17:56 | 41.23306 | -8.67609 | 238 ft | 5 kts | 259° |
| 2026-05-05 17:56 | 41.23299 | -8.67653 | 239 ft | 5 kts | 259° |
| 2026-05-05 17:56 | 41.23294 | -8.67693 | 240 ft | 4 kts | 259° |
| 2026-05-05 17:56 | 41.23296 | -8.67708 | 240 ft | 2 kts | 298° |
| 2026-05-05 17:57 | 41.23331 | -8.67726 | 240 ft | 8 kts | 355° |
| 2026-05-05 17:57 | 41.23417 | -8.67770 | 239 ft | 19 kts | 339° |
| 2026-05-05 17:57 | 41.23676 | -8.67832 | 235 ft | 73 kts | 348° |
| 2026-05-05 17:57 | 41.24417 | -8.68027 | 215 ft | 141 kts | 349° |
| 2026-05-05 17:58 | 41.25534 | -8.68287 | 452 ft | 173 kts | 346° |
| 2026-05-05 17:58 | 41.26717 | -8.68706 | 1246 ft | 180 kts | 340° |
| 2026-05-05 17:58 | 41.27922 | -8.69223 | 2137 ft | 188 kts | 345° |
| 2026-05-05 17:58 | 41.29281 | -8.69585 | 2766 ft | 209 kts | 348° |
| 2026-05-05 17:59 | 41.30777 | -8.69957 | 3364 ft | 227 kts | 348° |
| 2026-05-05 17:59 | 41.32330 | -8.70336 | 4407 ft | 226 kts | 348° |
| 2026-05-05 17:59 | 41.33876 | -8.70710 | 5376 ft | 231 kts | 348° |
| 2026-05-05 17:59 | 41.35468 | -8.71092 | 6333 ft | 235 kts | 348° |
| 2026-05-05 18:00 | 41.37082 | -8.71477 | 7262 ft | 240 kts | 348° |
| 2026-05-05 18:00 | 41.38786 | -8.71869 | 7887 ft | 257 kts | 352° |
| 2026-05-05 18:00 | 41.40587 | -8.71575 | 8707 ft | 267 kts | 20° |
| 2026-05-05 18:00 | 41.42141 | -8.70159 | 9643 ft | 279 kts | 44° |
| 2026-05-05 18:01 | 41.43131 | -8.67890 | 10432 ft | 293 kts | 70° |
| 2026-05-05 18:01 | 41.43565 | -8.65138 | 10945 ft | 313 kts | 76° |
| 2026-05-05 18:01 | 41.43681 | -8.62133 | 11320 ft | 338 kts | 96° |
| 2026-05-05 18:01 | 41.42850 | -8.59130 | 11799 ft | 358 kts | 122° |
| 2026-05-05 18:02 | 41.41121 | -8.56739 | 12387 ft | 369 kts | 146° |
| 2026-05-05 18:02 | 41.38935 | -8.54888 | 13143 ft | 374 kts | 141° |
| 2026-05-05 18:02 | 41.37293 | -8.52234 | 13917 ft | 375 kts | 115° |
| 2026-05-05 18:02 | 41.36330 | -8.48991 | 14510 ft | 380 kts | 110° |
| 2026-05-05 18:03 | 41.35284 | -8.45717 | 15092 ft | 386 kts | 112° |
| 2026-05-05 18:03 | 41.34192 | -8.42428 | 15713 ft | 392 kts | 112° |
| 2026-05-05 18:03 | 41.33063 | -8.39088 | 16311 ft | 398 kts | 112° |
| 2026-05-05 18:03 | 41.31909 | -8.35717 | 16931 ft | 404 kts | 112° |
| 2026-05-05 18:04 | 41.30731 | -8.32301 | 17510 ft | 409 kts | 112° |
| 2026-05-05 18:04 | 41.29539 | -8.28851 | 18153 ft | 413 kts | 112° |
| 2026-05-05 18:04 | 41.28322 | -8.25340 | 18627 ft | 419 kts | 113° |
| 2026-05-05 18:04 | 41.27096 | -8.21805 | 19183 ft | 422 kts | 113° |
| 2026-05-05 18:05 | 41.25860 | -8.18247 | 19650 ft | 427 kts | 113° |
| 2026-05-05 18:05 | 41.24622 | -8.14686 | 20158 ft | 431 kts | 113° |
| 2026-05-05 18:05 | 41.23360 | -8.11059 | 20666 ft | 434 kts | 114° |
| 2026-05-05 18:05 | 41.22082 | -8.07393 | 21164 ft | 438 kts | 114° |
| 2026-05-05 18:06 | 41.20797 | -8.03710 | 21672 ft | 441 kts | 114° |
| 2026-05-05 18:06 | 41.20359 | -8.02457 | 21844 ft | 443 kts | 114° |
| 2026-05-05 18:06 | 41.18191 | -7.96258 | 22664 ft | 448 kts | 114° |
| 2026-05-05 18:06 | 41.16869 | -7.92487 | 23109 ft | 452 kts | 114° |
| 2026-05-05 18:07 | 41.15551 | -7.88731 | 23565 ft | 455 kts | 114° |
| 2026-05-05 18:07 | 41.14212 | -7.84916 | 23974 ft | 458 kts | 114° |
| 2026-05-05 18:07 | 41.12844 | -7.81032 | 24385 ft | 461 kts | 115° |
| 2026-05-05 18:07 | 41.11497 | -7.77205 | 24792 ft | 463 kts | 115° |
| 2026-05-05 18:08 | 41.10130 | -7.73332 | 25201 ft | 466 kts | 115° |
| 2026-05-05 18:08 | 41.08752 | -7.69428 | 25571 ft | 468 kts | 115° |
| 2026-05-05 18:08 | 41.07365 | -7.65510 | 26006 ft | 469 kts | 115° |
| 2026-05-05 18:08 | 41.05976 | -7.61583 | 26389 ft | 472 kts | 116° |
| 2026-05-05 18:09 | 41.04589 | -7.57676 | 26760 ft | 474 kts | 116° |
| 2026-05-05 18:09 | 41.03179 | -7.53703 | 27055 ft | 479 kts | 116° |
| 2026-05-05 18:09 | 41.01754 | -7.49699 | 27434 ft | 481 kts | 116° |
| 2026-05-05 18:09 | 41.00321 | -7.45675 | 27805 ft | 483 kts | 116° |
| 2026-05-05 18:10 | 40.98886 | -7.41650 | 28155 ft | 485 kts | 116° |
| 2026-05-05 18:10 | 40.97455 | -7.37644 | 28504 ft | 488 kts | 116° |
| 2026-05-05 18:10 | 40.95981 | -7.33522 | 28819 ft | 491 kts | 116° |
| 2026-05-05 18:10 | 40.94535 | -7.29484 | 29131 ft | 493 kts | 116° |
| 2026-05-05 18:11 | 40.93043 | -7.25325 | 29449 ft | 495 kts | 117° |
| 2026-05-05 18:11 | 40.91581 | -7.21254 | 29764 ft | 497 kts | 117° |
| 2026-05-05 18:11 | 40.90094 | -7.17122 | 29992 ft | 500 kts | 117° |
| 2026-05-05 18:12 | 40.87099 | -7.08813 | 30010 ft | 499 kts | 117° |
| 2026-05-05 18:12 | 40.84107 | -7.00534 | 30007 ft | 499 kts | 117° |
| 2026-05-05 18:13 | 40.81110 | -6.92267 | 30007 ft | 499 kts | 117° |
| 2026-05-05 18:13 | 40.78130 | -6.84071 | 30019 ft | 498 kts | 117° |
| 2026-05-05 18:14 | 40.75113 | -6.75795 | 30007 ft | 501 kts | 118° |
| 2026-05-05 18:14 | 40.72084 | -6.67512 | 30005 ft | 502 kts | 118° |
| 2026-05-05 18:15 | 40.69563 | -6.60634 | 30007 ft | 500 kts | 118° |
| 2026-05-05 18:15 | 40.66538 | -6.52405 | 29995 ft | 499 kts | 118° |
| 2026-05-05 18:16 | 40.63503 | -6.44172 | 30008 ft | 500 kts | 118° |
| 2026-05-05 18:16 | 40.60453 | -6.35919 | 29997 ft | 501 kts | 118° |
| 2026-05-05 18:17 | 40.58152 | -6.27371 | 29995 ft | 502 kts | 97° |
| 2026-05-05 18:17 | 40.57330 | -6.18212 | 29985 ft | 504 kts | 97° |
| 2026-05-05 18:18 | 40.56434 | -6.09057 | 29983 ft | 505 kts | 97° |
| 2026-05-05 18:18 | 40.55528 | -5.99868 | 30263 ft | 507 kts | 97° |
| 2026-05-05 18:18 | 40.55071 | -5.95258 | 30540 ft | 509 kts | 97° |
| 2026-05-05 18:19 | 40.54618 | -5.90721 | 30816 ft | 510 kts | 98° |
| 2026-05-05 18:19 | 40.54153 | -5.86074 | 31095 ft | 512 kts | 98° |
| 2026-05-05 18:19 | 40.53685 | -5.81415 | 31380 ft | 513 kts | 98° |
| 2026-05-05 18:19 | 40.53214 | -5.76755 | 31670 ft | 514 kts | 98° |
| 2026-05-05 18:20 | 40.52740 | -5.72075 | 31955 ft | 516 kts | 98° |
| 2026-05-05 18:20 | 40.52268 | -5.67442 | 32236 ft | 517 kts | 98° |
| 2026-05-05 18:20 | 40.51790 | -5.62753 | 32525 ft | 518 kts | 98° |
| 2026-05-05 18:20 | 40.51308 | -5.58063 | 32816 ft | 518 kts | 98° |
| 2026-05-05 18:21 | 40.50829 | -5.53407 | 33110 ft | 518 kts | 98° |
| 2026-05-05 18:21 | 40.50343 | -5.48709 | 33410 ft | 518 kts | 98° |
| 2026-05-05 18:21 | 40.49854 | -5.44006 | 33481 ft | 523 kts | 98° |
| 2026-05-05 18:22 | 40.48858 | -5.34407 | 33519 ft | 530 kts | 98° |
| 2026-05-05 18:22 | 40.48356 | -5.29669 | 33771 ft | 529 kts | 98° |
| 2026-05-05 18:22 | 40.47836 | -5.24892 | 33999 ft | 529 kts | 99° |
| 2026-05-05 18:22 | 40.47294 | -5.20095 | 34131 ft | 530 kts | 99° |
| 2026-05-05 18:23 | 40.46732 | -5.15291 | 34190 ft | 533 kts | 99° |
| 2026-05-05 18:23 | 40.45522 | -5.05705 | 34264 ft | 536 kts | 101° |
| 2026-05-05 18:24 | 40.44159 | -4.96094 | 34318 ft | 522 kts | 102° |
| 2026-05-05 18:24 | 40.43453 | -4.91507 | 33604 ft | 520 kts | 103° |
| 2026-05-05 18:24 | 40.42689 | -4.86815 | 32173 ft | 531 kts | 103° |
| 2026-05-05 18:24 | 40.42177 | -4.81928 | 30700 ft | 550 kts | 91° |
| 2026-05-05 18:25 | 40.42173 | -4.76892 | 29213 ft | 556 kts | 92° |
| 2026-05-05 18:25 | 40.42010 | -4.73504 | 28222 ft | 559 kts | 94° |
| 2026-05-05 18:25 | 40.41512 | -4.66808 | 27572 ft | 539 kts | 95° |
| 2026-05-05 18:25 | 40.41104 | -4.61970 | 27913 ft | 530 kts | 97° |
| 2026-05-05 18:26 | 40.40539 | -4.57199 | 28283 ft | 529 kts | 99° |
| 2026-05-05 18:26 | 40.39977 | -4.52421 | 28580 ft | 530 kts | 99° |
| 2026-05-05 18:26 | 40.39429 | -4.47620 | 28871 ft | 530 kts | 99° |
| 2026-05-05 18:26 | 40.38895 | -4.42873 | 29140 ft | 530 kts | 99° |
| 2026-05-05 18:27 | 40.38358 | -4.38101 | 29464 ft | 527 kts | 99° |
| 2026-05-05 18:27 | 40.37820 | -4.33340 | 29796 ft | 526 kts | 99° |
| 2026-05-05 18:27 | 40.37284 | -4.28609 | 30096 ft | 525 kts | 99° |
| 2026-05-05 18:27 | 40.36630 | -4.23896 | 30365 ft | 523 kts | 105° |
| 2026-05-05 18:28 | 40.34947 | -4.14670 | 30929 ft | 522 kts | 104° |
| 2026-05-05 18:28 | 40.34134 | -4.10040 | 31217 ft | 520 kts | 104° |
| 2026-05-05 18:28 | 40.33324 | -4.05399 | 31497 ft | 519 kts | 104° |
| 2026-05-05 18:29 | 40.32526 | -4.00824 | 31772 ft | 518 kts | 104° |
| 2026-05-05 18:29 | 40.31722 | -3.96226 | 32025 ft | 519 kts | 104° |
| 2026-05-05 18:29 | 40.30908 | -3.91583 | 32190 ft | 523 kts | 104° |
| 2026-05-05 18:29 | 40.30100 | -3.86989 | 32579 ft | 521 kts | 104° |
| 2026-05-05 18:30 | 40.29282 | -3.82345 | 32972 ft | 520 kts | 104° |
| 2026-05-05 18:30 | 40.28467 | -3.77734 | 33330 ft | 519 kts | 105° |
| 2026-05-05 18:30 | 40.27658 | -3.73169 | 33650 ft | 520 kts | 105° |
| 2026-05-05 18:30 | 40.26839 | -3.68553 | 33936 ft | 520 kts | 105° |
| 2026-05-05 18:31 | 40.25202 | -3.59364 | 33961 ft | 517 kts | 105° |
| 2026-05-05 18:31 | 40.23557 | -3.50180 | 33961 ft | 517 kts | 105° |
| 2026-05-05 18:32 | 40.21916 | -3.41059 | 33955 ft | 517 kts | 105° |
| 2026-05-05 18:32 | 40.20256 | -3.31881 | 33906 ft | 519 kts | 105° |
| 2026-05-05 18:33 | 40.18599 | -3.22758 | 34112 ft | 518 kts | 105° |
| 2026-05-05 18:33 | 40.17763 | -3.18170 | 34373 ft | 517 kts | 106° |
| 2026-05-05 18:33 | 40.16924 | -3.13585 | 34636 ft | 517 kts | 106° |
| 2026-05-05 18:34 | 40.16098 | -3.09074 | 34892 ft | 517 kts | 106° |
| 2026-05-05 18:34 | 40.15260 | -3.04507 | 35151 ft | 516 kts | 106° |
| 2026-05-05 18:34 | 40.14419 | -2.99944 | 35419 ft | 516 kts | 106° |
| 2026-05-05 18:34 | 40.13580 | -2.95394 | 35688 ft | 515 kts | 106° |
| 2026-05-05 18:35 | 40.12736 | -2.90834 | 35924 ft | 515 kts | 106° |
| 2026-05-05 18:35 | 40.11890 | -2.86271 | 35959 ft | 516 kts | 106° |
| 2026-05-05 18:35 | 40.10210 | -2.77244 | 35933 ft | 513 kts | 106° |
| 2026-05-05 18:36 | 40.08520 | -2.68201 | 35937 ft | 514 kts | 106° |
| 2026-05-05 18:36 | 40.06816 | -2.59126 | 35934 ft | 514 kts | 107° |
| 2026-05-05 18:37 | 40.05104 | -2.50056 | 35930 ft | 514 kts | 107° |
| 2026-05-05 18:37 | 40.03387 | -2.40992 | 35937 ft | 514 kts | 107° |
| 2026-05-05 18:38 | 40.01675 | -2.31998 | 35933 ft | 514 kts | 107° |
| 2026-05-05 18:38 | 39.99944 | -2.22935 | 35926 ft | 514 kts | 107° |
| 2026-05-05 18:39 | 39.98027 | -2.13996 | 35942 ft | 511 kts | 110° |
| 2026-05-05 18:39 | 39.95969 | -2.05181 | 35932 ft | 512 kts | 110° |
| 2026-05-05 18:40 | 39.93913 | -1.96296 | 35931 ft | 512 kts | 110° |
| 2026-05-05 18:40 | 39.91846 | -1.87399 | 35927 ft | 512 kts | 110° |
| 2026-05-05 18:41 | 39.89772 | -1.78499 | 35936 ft | 513 kts | 110° |
| 2026-05-05 18:41 | 39.87696 | -1.69627 | 35931 ft | 512 kts | 110° |
| 2026-05-05 18:42 | 39.85609 | -1.60744 | 35927 ft | 513 kts | 111° |
| 2026-05-05 18:42 | 39.83518 | -1.51873 | 35919 ft | 513 kts | 111° |
| 2026-05-05 18:43 | 39.81413 | -1.43028 | 35941 ft | 514 kts | 111° |
| 2026-05-05 18:43 | 39.79119 | -1.34329 | 35894 ft | 505 kts | 123° |
| 2026-05-05 18:44 | 39.77198 | -1.30591 | 35941 ft | 491 kts | 138° |
| 2026-05-05 18:44 | 39.74770 | -1.27532 | 35938 ft | 479 kts | 152° |
| 2026-05-05 18:44 | 39.71960 | -1.25345 | 35982 ft | 466 kts | 161° |
| 2026-05-05 18:44 | 39.69054 | -1.23436 | 35965 ft | 468 kts | 162° |
| 2026-05-05 18:45 | 39.63197 | -1.19848 | 35967 ft | 466 kts | 163° |
| 2026-05-05 18:45 | 39.57360 | -1.16126 | 35900 ft | 476 kts | 151° |
| 2026-05-05 18:46 | 39.54987 | -1.13138 | 35922 ft | 491 kts | 132° |
| 2026-05-05 18:46 | 39.53187 | -1.09290 | 35947 ft | 504 kts | 125° |
| 2026-05-05 18:46 | 39.49657 | -1.01447 | 35924 ft | 504 kts | 126° |
| 2026-05-05 18:47 | 39.46142 | -0.93680 | 35889 ft | 503 kts | 126° |
| 2026-05-05 18:47 | 39.42600 | -0.85872 | 35881 ft | 503 kts | 127° |
| 2026-05-05 18:48 | 39.39052 | -0.78066 | 35877 ft | 503 kts | 127° |
| 2026-05-05 18:48 | 39.35511 | -0.70299 | 35886 ft | 498 kts | 127° |
| 2026-05-05 18:49 | 39.32005 | -0.62624 | 35873 ft | 494 kts | 127° |
| 2026-05-05 18:49 | 39.29027 | -0.54641 | 35862 ft | 506 kts | 108° |
| 2026-05-05 18:50 | 39.28590 | -0.50105 | 35872 ft | 514 kts | 92° |
| 2026-05-05 18:50 | 39.28795 | -0.45476 | 35866 ft | 517 kts | 89° |
| 2026-05-05 18:50 | 39.29241 | -0.36183 | 35860 ft | 518 kts | 89° |
| 2026-05-05 18:51 | 39.29487 | -0.31431 | 35858 ft | 518 kts | 89° |
| 2026-05-05 18:51 | 39.29969 | -0.22175 | 35855 ft | 518 kts | 89° |
| 2026-05-05 18:52 | 39.30445 | -0.12895 | 35854 ft | 518 kts | 89° |
| 2026-05-05 18:52 | 39.30914 | -0.03606 | 35852 ft | 518 kts | 89° |
| 2026-05-05 18:53 | 39.31375 | 0.05672 | 35850 ft | 519 kts | 89° |
| 2026-05-05 18:53 | 39.31829 | 0.14936 | 35861 ft | 520 kts | 89° |
| 2026-05-05 18:54 | 39.32277 | 0.24261 | 35870 ft | 520 kts | 89° |
| 2026-05-05 18:54 | 39.32718 | 0.33591 | 35874 ft | 520 kts | 89° |
| 2026-05-05 18:55 | 39.33153 | 0.42939 | 34662 ft | 529 kts | 89° |
| 2026-05-05 18:55 | 39.33372 | 0.47726 | 33912 ft | 531 kts | 89° |
| 2026-05-05 18:55 | 39.33586 | 0.52420 | 33357 ft | 526 kts | 89° |
| 2026-05-05 18:56 | 39.33800 | 0.57152 | 32576 ft | 527 kts | 89° |
| 2026-05-05 18:56 | 39.34011 | 0.61876 | 31760 ft | 528 kts | 89° |
| 2026-05-05 18:56 | 39.34220 | 0.66613 | 31065 ft | 528 kts | 89° |
| 2026-05-05 18:56 | 39.34425 | 0.71271 | 30518 ft | 524 kts | 89° |
| 2026-05-05 18:57 | 39.34628 | 0.75969 | 30000 ft | 519 kts | 89° |
| 2026-05-05 18:57 | 39.34828 | 0.80611 | 29367 ft | 516 kts | 89° |
| 2026-05-05 18:57 | 39.35025 | 0.85239 | 28820 ft | 512 kts | 89° |
| 2026-05-05 18:57 | 39.35219 | 0.89823 | 28249 ft | 508 kts | 89° |
| 2026-05-05 18:58 | 39.35406 | 0.94303 | 27728 ft | 503 kts | 89° |
| 2026-05-05 18:58 | 39.35594 | 0.98819 | 27225 ft | 498 kts | 89° |
| 2026-05-05 18:58 | 39.35775 | 1.03216 | 26731 ft | 494 kts | 89° |
| 2026-05-05 18:58 | 39.35954 | 1.07627 | 26248 ft | 489 kts | 89° |
| 2026-05-05 18:59 | 39.36132 | 1.12027 | 25766 ft | 485 kts | 89° |
| 2026-05-05 18:59 | 39.36303 | 1.16325 | 25304 ft | 481 kts | 89° |
| 2026-05-05 18:59 | 39.36474 | 1.20620 | 24886 ft | 476 kts | 89° |
| 2026-05-05 18:59 | 39.36641 | 1.24884 | 24414 ft | 473 kts | 89° |
| 2026-05-05 19:00 | 39.36807 | 1.29115 | 24013 ft | 468 kts | 89° |
| 2026-05-05 19:00 | 39.36969 | 1.33317 | 23585 ft | 465 kts | 89° |
| 2026-05-05 19:00 | 39.37127 | 1.37430 | 23125 ft | 461 kts | 89° |
| 2026-05-05 19:00 | 39.37362 | 1.41566 | 22621 ft | 459 kts | 83° |
| 2026-05-05 19:01 | 39.37877 | 1.45634 | 22140 ft | 455 kts | 82° |
| 2026-05-05 19:01 | 39.38400 | 1.49659 | 21684 ft | 452 kts | 82° |
| 2026-05-05 19:01 | 39.38919 | 1.53611 | 21215 ft | 449 kts | 82° |
| 2026-05-05 19:01 | 39.39440 | 1.57582 | 20780 ft | 446 kts | 82° |
| 2026-05-05 19:02 | 39.39955 | 1.61514 | 20354 ft | 442 kts | 82° |
| 2026-05-05 19:02 | 39.40460 | 1.65380 | 19945 ft | 439 kts | 82° |
| 2026-05-05 19:02 | 39.40968 | 1.69273 | 19529 ft | 435 kts | 83° |
| 2026-05-05 19:02 | 39.41469 | 1.73128 | 19130 ft | 432 kts | 83° |
| 2026-05-05 19:03 | 39.41967 | 1.76966 | 18727 ft | 429 kts | 83° |
| 2026-05-05 19:03 | 39.42451 | 1.80715 | 18356 ft | 426 kts | 83° |
| 2026-05-05 19:03 | 39.42939 | 1.84491 | 17941 ft | 423 kts | 83° |
| 2026-05-05 19:03 | 39.43420 | 1.88226 | 17560 ft | 418 kts | 83° |
| 2026-05-05 19:04 | 39.43889 | 1.91882 | 17308 ft | 410 kts | 83° |
| 2026-05-05 19:04 | 39.44351 | 1.95491 | 17116 ft | 401 kts | 83° |
| 2026-05-05 19:04 | 39.44802 | 1.99019 | 16936 ft | 392 kts | 83° |
| 2026-05-05 19:04 | 39.45255 | 2.02457 | 16769 ft | 383 kts | 79° |
| 2026-05-05 19:05 | 39.45750 | 2.04633 | 16671 ft | 378 kts | 72° |
| 2026-05-05 19:05 | 39.46883 | 2.08839 | 16463 ft | 367 kts | 72° |
| 2026-05-05 19:05 | 39.47708 | 2.11953 | 16119 ft | 364 kts | 73° |
| 2026-05-05 19:05 | 39.48523 | 2.15046 | 15811 ft | 361 kts | 73° |
| 2026-05-05 19:06 | 39.49323 | 2.18088 | 15479 ft | 359 kts | 73° |
| 2026-05-05 19:06 | 39.50121 | 2.21128 | 15160 ft | 356 kts | 73° |
| 2026-05-05 19:06 | 39.50917 | 2.24163 | 14854 ft | 354 kts | 73° |
| 2026-05-05 19:06 | 39.51442 | 2.26170 | 14649 ft | 352 kts | 73° |
| 2026-05-05 19:07 | 39.52226 | 2.29168 | 14336 ft | 350 kts | 73° |
| 2026-05-05 19:07 | 39.53008 | 2.32160 | 13989 ft | 349 kts | 73° |
| 2026-05-05 19:07 | 39.53776 | 2.35102 | 13688 ft | 347 kts | 73° |
| 2026-05-05 19:07 | 39.54548 | 2.38059 | 13340 ft | 345 kts | 73° |
| 2026-05-05 19:08 | 39.55574 | 2.40867 | 13041 ft | 342 kts | 59° |
| 2026-05-05 19:08 | 39.56668 | 2.43589 | 12711 ft | 340 kts | 66° |
| 2026-05-05 19:08 | 39.57621 | 2.46329 | 12529 ft | 334 kts | 67° |
| 2026-05-05 19:08 | 39.58544 | 2.49036 | 12462 ft | 323 kts | 67° |
| 2026-05-05 19:09 | 39.59439 | 2.51672 | 12348 ft | 315 kts | 67° |
| 2026-05-05 19:09 | 39.60301 | 2.54221 | 12126 ft | 311 kts | 67° |
| 2026-05-05 19:09 | 39.61175 | 2.56824 | 11779 ft | 311 kts | 67° |
| 2026-05-05 19:09 | 39.62016 | 2.59359 | 11289 ft | 309 kts | 67° |
| 2026-05-05 19:10 | 39.62845 | 2.61910 | 10834 ft | 305 kts | 67° |
| 2026-05-05 19:10 | 39.63662 | 2.64448 | 10379 ft | 303 kts | 67° |
| 2026-05-05 19:10 | 39.64454 | 2.66952 | 10017 ft | 292 kts | 67° |
| 2026-05-05 19:10 | 39.65212 | 2.69344 | 9582 ft | 282 kts | 67° |
| 2026-05-05 19:11 | 39.65948 | 2.71644 | 9098 ft | 275 kts | 67° |
| 2026-05-05 19:11 | 39.66662 | 2.73913 | 8631 ft | 269 kts | 67° |
| 2026-05-05 19:11 | 39.67357 | 2.76144 | 8151 ft | 263 kts | 67° |
| 2026-05-05 19:11 | 39.68033 | 2.78336 | 7697 ft | 258 kts | 67° |
| 2026-05-05 19:12 | 39.68685 | 2.80467 | 7237 ft | 254 kts | 67° |
| 2026-05-05 19:12 | 39.69321 | 2.82590 | 6773 ft | 250 kts | 67° |
| 2026-05-05 19:12 | 39.69942 | 2.84690 | 6339 ft | 246 kts | 67° |
| 2026-05-05 19:12 | 39.70539 | 2.86731 | 5902 ft | 242 kts | 67° |
| 2026-05-05 19:13 | 39.71128 | 2.88760 | 5598 ft | 238 kts | 67° |
| 2026-05-05 19:13 | 39.71704 | 2.90763 | 5305 ft | 236 kts | 68° |
| 2026-05-05 19:13 | 39.72412 | 2.92669 | 5060 ft | 232 kts | 54° |
| 2026-05-05 19:13 | 39.73308 | 2.94400 | 4964 ft | 231 kts | 52° |
| 2026-05-05 19:14 | 39.74228 | 2.96117 | 4960 ft | 231 kts | 52° |
| 2026-05-05 19:14 | 39.75135 | 2.97812 | 4975 ft | 231 kts | 52° |
| 2026-05-05 19:14 | 39.76056 | 2.99540 | 4974 ft | 231 kts | 52° |
| 2026-05-05 19:14 | 39.76973 | 3.01264 | 4993 ft | 231 kts | 52° |
| 2026-05-05 19:15 | 39.77885 | 3.02967 | 4981 ft | 232 kts | 52° |
| 2026-05-05 19:15 | 39.78805 | 3.04698 | 4981 ft | 232 kts | 52° |
| 2026-05-05 19:15 | 39.79720 | 3.06412 | 4984 ft | 232 kts | 52° |
| 2026-05-05 19:15 | 39.80641 | 3.08137 | 4980 ft | 232 kts | 52° |
| 2026-05-05 19:16 | 39.81564 | 3.09871 | 4976 ft | 232 kts | 52° |
| 2026-05-05 19:16 | 39.82186 | 3.11778 | 4938 ft | 234 kts | 82° |
| 2026-05-05 19:16 | 39.81993 | 3.13869 | 4957 ft | 234 kts | 112° |
| 2026-05-05 19:16 | 39.81048 | 3.15483 | 4926 ft | 217 kts | 152° |
| 2026-05-05 19:17 | 39.79657 | 3.16082 | 4871 ft | 211 kts | 183° |
| 2026-05-05 19:17 | 39.78267 | 3.15719 | 4835 ft | 206 kts | 212° |
| 2026-05-05 19:17 | 39.77100 | 3.14659 | 4822 ft | 206 kts | 221° |
| 2026-05-05 19:17 | 39.75944 | 3.13532 | 4766 ft | 207 kts | 221° |
| 2026-05-05 19:18 | 39.74785 | 3.12429 | 4712 ft | 206 kts | 220° |
| 2026-05-05 19:18 | 39.73621 | 3.11332 | 4663 ft | 206 kts | 220° |
| 2026-05-05 19:18 | 39.72504 | 3.10184 | 4572 ft | 204 kts | 227° |
| 2026-05-05 19:18 | 39.71540 | 3.08866 | 4474 ft | 203 kts | 233° |
| 2026-05-05 19:19 | 39.70646 | 3.07447 | 4353 ft | 202 kts | 235° |
| 2026-05-05 19:19 | 39.69806 | 3.05978 | 4269 ft | 202 kts | 238° |
| 2026-05-05 19:19 | 39.69011 | 3.04484 | 4170 ft | 201 kts | 239° |
| 2026-05-05 19:19 | 39.68251 | 3.02986 | 4071 ft | 200 kts | 240° |
| 2026-05-05 19:20 | 39.67504 | 3.01469 | 3969 ft | 200 kts | 241° |
| 2026-05-05 19:20 | 39.66764 | 2.99939 | 3832 ft | 199 kts | 240° |
| 2026-05-05 19:20 | 39.66036 | 2.98414 | 3699 ft | 199 kts | 241° |
| 2026-05-05 19:20 | 39.65317 | 2.96898 | 3537 ft | 192 kts | 241° |
| 2026-05-05 19:21 | 39.64638 | 2.95466 | 3318 ft | 180 kts | 241° |
| 2026-05-05 19:21 | 39.63998 | 2.94110 | 3117 ft | 177 kts | 242° |
| 2026-05-05 19:21 | 39.63358 | 2.92750 | 2888 ft | 176 kts | 241° |
| 2026-05-05 19:21 | 39.62717 | 2.91393 | 2669 ft | 176 kts | 241° |
| 2026-05-05 19:22 | 39.62076 | 2.90031 | 2463 ft | 177 kts | 240° |
| 2026-05-05 19:22 | 39.61433 | 2.88670 | 2225 ft | 177 kts | 240° |
| 2026-05-05 19:22 | 39.60791 | 2.87305 | 1994 ft | 177 kts | 240° |
| 2026-05-05 19:22 | 39.60150 | 2.85944 | 1773 ft | 175 kts | 239° |
| 2026-05-05 19:23 | 39.59556 | 2.84686 | 1568 ft | 156 kts | 240° |
| 2026-05-05 19:23 | 39.58999 | 2.83502 | 1354 ft | 150 kts | 239° |
| 2026-05-05 19:23 | 39.58454 | 2.82345 | 1151 ft | 150 kts | 239° |
| 2026-05-05 19:23 | 39.57914 | 2.81197 | 947 ft | 151 kts | 238° |
| 2026-05-05 19:24 | 39.57362 | 2.80028 | 740 ft | 152 kts | 238° |
| 2026-05-05 19:24 | 39.56812 | 2.78863 | 530 ft | 150 kts | 238° |
| 2026-05-05 19:24 | 39.56272 | 2.77705 | 324 ft | 150 kts | 238° |
| 2026-05-05 19:24 | 39.55738 | 2.76557 | 125 ft | 149 kts | 238° |
| 2026-05-05 19:25 | 39.55205 | 2.75444 | 36 ft | 137 kts | 236° |
| 2026-05-05 19:25 | 39.54754 | 2.74501 | 33 ft | 108 kts | 239° |
| 2026-05-05 19:25 | 39.54487 | 2.73935 | 32 ft | 54 kts | 238° |
| 2026-05-05 19:25 | 39.54300 | 2.73537 | 33 ft | 43 kts | 240° |
| 2026-05-05 19:26 | 39.54287 | 2.73221 | 33 ft | 24 kts | 287° |
| 2026-05-05 19:26 | 39.54295 | 2.73199 | 32 ft | 2 kts | 300° |
| 2026-05-05 19:26 | 39.54304 | 2.73179 | 32 ft | 0 kts | 300° |
| 2026-05-05 19:26 | 39.54306 | 2.73174 | 32 ft | 0 kts | 300° |
| 2026-05-05 19:27 | 39.54309 | 2.73169 | 32 ft | 0 kts | 300° |
| 2026-05-05 19:27 | 39.54312 | 2.73161 | 33 ft | 2 kts | 300° |
| 2026-05-05 19:27 | 39.54315 | 2.73155 | 32 ft | 0 kts | 300° |
| 2026-05-05 19:27 | 39.54316 | 2.73152 | 32 ft | 0 kts | 300° |
| 2026-05-05 19:28 | 39.54317 | 2.73150 | 32 ft | 0 kts | 300° |
| 2026-05-05 19:30 | 39.54318 | 2.73149 | 32 ft | 0 kts | 311° |
| 2026-05-05 19:30 | 39.54319 | 2.73149 | 32 ft | 0 kts | 321° |
| 2026-05-05 19:30 | 39.54321 | 2.73150 | 32 ft | 0 kts | 0° |
| 2026-05-05 19:31 | 39.54326 | 2.73156 | 32 ft | 2 kts | 46° |
| 2026-05-05 19:31 | 39.54352 | 2.73199 | 32 ft | 7 kts | 53° |
| 2026-05-05 19:31 | 39.54377 | 2.73247 | 32 ft | 4 kts | 61° |
| 2026-05-05 19:31 | 39.54410 | 2.73322 | 32 ft | 16 kts | 58° |
| 2026-05-05 19:32 | 39.54477 | 2.73465 | 32 ft | 20 kts | 58° |
| 2026-05-05 19:32 | 39.54553 | 2.73626 | 32 ft | 22 kts | 58° |
| 2026-05-05 19:32 | 39.54636 | 2.73802 | 32 ft | 24 kts | 58° |
| 2026-05-05 19:32 | 39.54707 | 2.73950 | 32 ft | 12 kts | 58° |
| 2026-05-05 19:33 | 39.54757 | 2.74032 | 32 ft | 9 kts | 23° |
| 2026-05-05 19:33 | 39.54802 | 2.74020 | 32 ft | 7 kts | 336° |
| 2026-05-05 19:33 | 39.54849 | 2.73999 | 32 ft | 6 kts | 336° |
| 2026-05-05 19:33 | 39.54885 | 2.73973 | 32 ft | 6 kts | 329° |
| 2026-05-05 19:34 | 39.54925 | 2.73942 | 32 ft | 8 kts | 329° |
| 2026-05-05 19:34 | 39.54979 | 2.73900 | 32 ft | 10 kts | 329° |
| 2026-05-05 19:34 | 39.55045 | 2.73847 | 32 ft | 12 kts | 327° |
| 2026-05-05 19:35 | 39.55093 | 2.73767 | 32 ft | 5 kts | 237° |
| 2026-05-05 19:35 | 39.55070 | 2.73720 | 32 ft | 5 kts | 239° |
| 2026-05-05 19:35 | 39.55058 | 2.73694 | 32 ft | 1 kts | 238° |
| 2026-05-05 19:35 | 39.55056 | 2.73691 | 32 ft | 0 kts | 238° |